Stuttgart Echterdingen, Germania

10:36 AM CEST del 03 Agosto 2015 (GMT +0200)
Bonlanden | | Change Station
CLOSE
Current Station
Stazione meteo personale
Location: Filderstadt, BADEN-W�RTTEMBERG
Altitudine: 1270 ft
Stazioni meteo nelle vicinanze

Alt. 1270 ft 48.66 °N, 9.21 °E | Updated 6 minutes ago

Clear
Sereno
85.3 °F
Sembra 84 °F
N
3.0
Vento Variabile Vento da ENE
Gusts 4.5 mph

Oggi
Massima -- | Minima -- °F
--% Possibilità di precip.
Ieri
Massima -- | Minima -- °F
Precip. -- in
5:59 AM 8:58 PM
Gobba a levante, 88% visible
Pressione 30.09 in
Visibilità -9999.0 miglia
Nuvole
Indice di calore 84 °F
Punto di rugiada 55 °F
Umidità 35%
Piovosità 0.00 in
Spessore del manto nevoso Non disponibile.
Raggi UV 6.0 fuori da 12
Polline Non disponibile.
Qualità dell'aria Non disponibile.
Flu Activity Non disponibile.
METAR EDDS 030820Z 09004KT 050V140 CAVOK 25/12 Q1019 NOSIG

More Conditions Fewer Conditions

Pressione 30.09 in
Visibilità -9999.0 miglia
Nuvole
Indice di calore 84 °F
Punto di rugiada 55 °F
Umidità 35%
Piovosità 0.00 in
Spessore del manto nevoso Non disponibile.
Raggi UV 6.0 fuori da 12
Polline Non disponibile.
Qualità dell'aria Non disponibile.
Flu Activity Non disponibile.
METAR EDDS 030820Z 09004KT 050V140 CAVOK 25/12 Q1019 NOSIG

More Conditions Fewer Conditions

10-Day Weather Forecast

×

Almanac

Astronomia

Aug. 03, 2015 Alba Tramonto
Ora attuale
Crepuscolo civile
Crepuscolo nautico
Crepuscolo astronomico
Luna
Estensione della luce visibile
Lunghezza del giorno
Tomorrow will be .
, % of the Moon is Illuminated

Gli estremi di oggi

Massime Regione Minime Regione

Community

WunderPhotos

Upload Photos

1,843,592 foto caricate!

WunderBlogs® & News

Nearby

Qualità dell'aria

  Qualità dell'aria Indice AQ Inquinante
Not available.

Profondità neve

Stazione Profondità Altitudine

Attività sismica

Città  Distanza Mag. Data & Ora
Minimo Magnitudo Mostrato è 2.5.

Temperature delle acque costiere

Località Temperatura

Stations

Stazioni meteo nelle vicinanze

Ubicazione della stazione Temp. Raffreddamento del vento Punto di rugiada Umidità Vento Precip. Alt. Aggiornato Tipo